sensor_id;sensor_type;location;lat;lon;timestamp;temperature;humidity
48768;DHT22;34933;40.968;14.538;2023-08-31T00:01:47;18.00;99.90
48768;DHT22;34933;40.968;14.538;2023-08-31T00:04:33;17.90;99.90
48768;DHT22;34933;40.968;14.538;2023-08-31T00:07:17;17.90;99.90
48768;DHT22;34933;40.968;14.538;2023-08-31T00:10:02;17.80;99.90
48768;DHT22;34933;40.968;14.538;2023-08-31T00:12:53;17.70;99.90
48768;DHT22;34933;40.968;14.538;2023-08-31T00:15:37;17.60;99.90
48768;DHT22;34933;40.968;14.538;2023-08-31T00:18:23;17.60;99.90
48768;DHT22;34933;40.968;14.538;2023-08-31T00:21:08;17.50;99.90
48768;DHT22;34933;40.968;14.538;2023-08-31T00:23:53;17.60;99.90
48768;DHT22;34933;40.968;14.538;2023-08-31T00:26:38;17.60;99.90
48768;DHT22;34933;40.968;14.538;2023-08-31T00:29:26;17.80;99.90
48768;DHT22;34933;40.968;14.538;2023-08-31T00:32:11;17.90;99.90
48768;DHT22;34933;40.968;14.538;2023-08-31T00:34:57;17.90;99.90
48768;DHT22;34933;40.968;14.538;2023-08-31T00:37:42;17.90;99.90
48768;DHT22;34933;40.968;14.538;2023-08-31T00:40:26;17.90;99.90
48768;DHT22;34933;40.968;14.538;2023-08-31T00:43:16;17.90;99.90
48768;DHT22;34933;40.968;14.538;2023-08-31T00:46:02;17.90;99.90
48768;DHT22;34933;40.968;14.538;2023-08-31T00:48:46;17.90;99.90
48768;DHT22;34933;40.968;14.538;2023-08-31T00:51:31;17.80;99.90
48768;DHT22;34933;40.968;14.538;2023-08-31T00:54:19;17.70;99.90
48768;DHT22;34933;40.968;14.538;2023-08-31T00:57:06;17.70;99.90
48768;DHT22;34933;40.968;14.538;2023-08-31T00:59:52;17.70;99.90
48768;DHT22;34933;40.968;14.538;2023-08-31T01:02:59;17.60;99.90
48768;DHT22;34933;40.968;14.538;2023-08-31T01:06:02;17.50;99.90
48768;DHT22;34933;40.968;14.538;2023-08-31T01:09:05;17.40;99.90
48768;DHT22;34933;40.968;14.538;2023-08-31T01:12:04;17.40;99.90
48768;DHT22;34933;40.968;14.538;2023-08-31T01:14:54;17.40;99.90
48768;DHT22;34933;40.968;14.538;2023-08-31T01:17:54;17.40;99.90
48768;DHT22;34933;40.968;14.538;2023-08-31T01:20:42;17.30;99.90
48768;DHT22;34933;40.968;14.538;2023-08-31T01:23:56;17.40;99.90
48768;DHT22;34933;40.968;14.538;2023-08-31T01:26:42;17.50;99.90
48768;DHT22;34933;40.968;14.538;2023-08-31T01:29:29;17.40;99.90
48768;DHT22;34933;40.968;14.538;2023-08-31T01:32:14;17.40;99.90
48768;DHT22;34933;40.968;14.538;2023-08-31T01:34:59;17.40;99.90
48768;DHT22;34933;40.968;14.538;2023-08-31T01:40:47;17.30;99.90
48768;DHT22;34933;40.968;14.538;2023-08-31T01:43:35;17.20;99.90
48768;DHT22;34933;40.968;14.538;2023-08-31T01:46:20;17.20;99.90
48768;DHT22;34933;40.968;14.538;2023-08-31T01:49:06;17.20;99.90
48768;DHT22;34933;40.968;14.538;2023-08-31T01:51:51;17.20;99.90
48768;DHT22;34933;40.968;14.538;2023-08-31T01:54:36;17.40;99.90
48768;DHT22;34933;40.968;14.538;2023-08-31T01:57:24;17.30;99.90
48768;DHT22;34933;40.968;14.538;2023-08-31T02:00:25;17.20;99.90
48768;DHT22;34933;40.968;14.538;2023-08-31T02:03:09;17.10;99.90
48768;DHT22;34933;40.968;14.538;2023-08-31T02:05:55;17.10;99.90
48768;DHT22;34933;40.968;14.538;2023-08-31T02:08:40;17.10;99.90
48768;DHT22;34933;40.968;14.538;2023-08-31T02:11:24;17.00;99.90
48768;DHT22;34933;40.968;14.538;2023-08-31T02:14:12;17.00;99.90
48768;DHT22;34933;40.968;14.538;2023-08-31T02:16:57;17.00;99.90
48768;DHT22;34933;40.968;14.538;2023-08-31T02:19:42;17.10;99.90
48768;DHT22;34933;40.968;14.538;2023-08-31T02:22:26;17.20;99.90
48768;DHT22;34933;40.968;14.538;2023-08-31T02:25:11;17.20;99.90
48768;DHT22;34933;40.968;14.538;2023-08-31T02:27:56;17.10;99.90
48768;DHT22;34933;40.968;14.538;2023-08-31T02:30:44;17.10;99.90
48768;DHT22;34933;40.968;14.538;2023-08-31T02:33:28;17.10;99.90
48768;DHT22;34933;40.968;14.538;2023-08-31T02:36:13;17.20;99.90
48768;DHT22;34933;40.968;14.538;2023-08-31T02:39:00;17.20;99.90
48768;DHT22;34933;40.968;14.538;2023-08-31T02:41:46;17.20;99.90
48768;DHT22;34933;40.968;14.538;2023-08-31T02:44:31;17.10;99.90
48768;DHT22;34933;40.968;14.538;2023-08-31T02:47:16;17.00;99.90
48768;DHT22;34933;40.968;14.538;2023-08-31T02:50:00;17.00;99.90
48768;DHT22;34933;40.968;14.538;2023-08-31T02:52:45;16.90;99.90
48768;DHT22;34933;40.968;14.538;2023-08-31T02:55:32;16.90;99.90
48768;DHT22;34933;40.968;14.538;2023-08-31T02:58:16;16.90;99.90
48768;DHT22;34933;40.968;14.538;2023-08-31T03:01:12;16.90;99.90
48768;DHT22;34933;40.968;14.538;2023-08-31T03:03:59;16.90;99.90
48768;DHT22;34933;40.968;14.538;2023-08-31T03:06:43;16.90;99.90
48768;DHT22;34933;40.968;14.538;2023-08-31T03:09:28;16.90;99.90
48768;DHT22;34933;40.968;14.538;2023-08-31T03:12:13;16.90;99.90
48768;DHT22;34933;40.968;14.538;2023-08-31T03:14:57;16.90;99.90
48768;DHT22;34933;40.968;14.538;2023-08-31T03:17:42;16.80;99.90
48768;DHT22;34933;40.968;14.538;2023-08-31T03:20:27;17.00;99.90
48768;DHT22;34933;40.968;14.538;2023-08-31T03:23:12;17.10;99.90
48768;DHT22;34933;40.968;14.538;2023-08-31T03:25:57;17.00;99.90
48768;DHT22;34933;40.968;14.538;2023-08-31T03:28:44;16.90;99.90
48768;DHT22;34933;40.968;14.538;2023-08-31T03:31:30;16.80;99.90
48768;DHT22;34933;40.968;14.538;2023-08-31T03:34:15;16.80;99.90
48768;DHT22;34933;40.968;14.538;2023-08-31T03:36:59;16.90;99.90
48768;DHT22;34933;40.968;14.538;2023-08-31T03:39:47;16.90;99.90
48768;DHT22;34933;40.968;14.538;2023-08-31T03:42:36;16.90;99.90
48768;DHT22;34933;40.968;14.538;2023-08-31T03:45:20;16.90;99.90
48768;DHT22;34933;40.968;14.538;2023-08-31T03:48:05;16.80;99.90
48768;DHT22;34933;40.968;14.538;2023-08-31T03:50:52;16.80;99.90
48768;DHT22;34933;40.968;14.538;2023-08-31T03:53:37;16.80;99.90
48768;DHT22;34933;40.968;14.538;2023-08-31T03:56:21;16.80;99.90
48768;DHT22;34933;40.968;14.538;2023-08-31T03:59:06;16.70;99.90
48768;DHT22;34933;40.968;14.538;2023-08-31T04:01:51;16.70;99.90
48768;DHT22;34933;40.968;14.538;2023-08-31T04:04:36;16.60;99.90
48768;DHT22;34933;40.968;14.538;2023-08-31T04:07:21;16.60;99.90
48768;DHT22;34933;40.968;14.538;2023-08-31T04:10:06;16.60;99.90
48768;DHT22;34933;40.968;14.538;2023-08-31T04:12:52;16.80;99.90
48768;DHT22;34933;40.968;14.538;2023-08-31T04:15:38;17.00;99.90
48768;DHT22;34933;40.968;14.538;2023-08-31T04:18:23;17.00;99.90
48768;DHT22;34933;40.968;14.538;2023-08-31T04:21:08;17.00;99.90
48768;DHT22;34933;40.968;14.538;2023-08-31T04:23:52;16.90;99.90
48768;DHT22;34933;40.968;14.538;2023-08-31T04:26:37;16.90;99.90
48768;DHT22;34933;40.968;14.538;2023-08-31T04:29:22;17.00;99.90
48768;DHT22;34933;40.968;14.538;2023-08-31T04:32:07;17.10;99.90
48768;DHT22;34933;40.968;14.538;2023-08-31T04:34:52;17.30;99.90
48768;DHT22;34933;40.968;14.538;2023-08-31T04:37:37;17.50;99.90
48768;DHT22;34933;40.968;14.538;2023-08-31T04:40:21;17.70;99.90
48768;DHT22;34933;40.968;14.538;2023-08-31T04:43:06;17.70;99.90
48768;DHT22;34933;40.968;14.538;2023-08-31T04:45:54;17.80;99.90
48768;DHT22;34933;40.968;14.538;2023-08-31T04:48:39;17.90;99.90
48768;DHT22;34933;40.968;14.538;2023-08-31T04:51:36;18.00;99.90
48768;DHT22;34933;40.968;14.538;2023-08-31T04:54:25;17.90;99.90
48768;DHT22;34933;40.968;14.538;2023-08-31T04:57:10;17.90;99.90
48768;DHT22;34933;40.968;14.538;2023-08-31T04:59:55;18.00;99.90
48768;DHT22;34933;40.968;14.538;2023-08-31T05:02:39;18.10;99.90
48768;DHT22;34933;40.968;14.538;2023-08-31T05:05:24;18.10;99.90
48768;DHT22;34933;40.968;14.538;2023-08-31T05:08:08;18.20;99.90
48768;DHT22;34933;40.968;14.538;2023-08-31T05:10:53;18.30;99.90
48768;DHT22;34933;40.968;14.538;2023-08-31T05:13:38;18.40;99.90
48768;DHT22;34933;40.968;14.538;2023-08-31T05:16:22;18.40;99.90
48768;DHT22;34933;40.968;14.538;2023-08-31T05:19:07;18.50;99.90
48768;DHT22;34933;40.968;14.538;2023-08-31T05:21:51;18.50;99.90
48768;DHT22;34933;40.968;14.538;2023-08-31T05:24:36;18.60;99.90
48768;DHT22;34933;40.968;14.538;2023-08-31T05:27:21;18.70;99.90
48768;DHT22;34933;40.968;14.538;2023-08-31T05:30:06;18.90;99.90
48768;DHT22;34933;40.968;14.538;2023-08-31T05:32:51;18.90;99.90
48768;DHT22;34933;40.968;14.538;2023-08-31T05:35:36;19.00;99.90
48768;DHT22;34933;40.968;14.538;2023-08-31T05:38:20;19.10;99.90
48768;DHT22;34933;40.968;14.538;2023-08-31T05:41:09;19.10;99.90
48768;DHT22;34933;40.968;14.538;2023-08-31T05:43:53;19.00;99.90
48768;DHT22;34933;40.968;14.538;2023-08-31T05:46:38;19.00;99.90
48768;DHT22;34933;40.968;14.538;2023-08-31T05:49:25;19.00;99.90
48768;DHT22;34933;40.968;14.538;2023-08-31T05:52:09;19.00;99.90
48768;DHT22;34933;40.968;14.538;2023-08-31T05:54:54;19.10;99.90
48768;DHT22;34933;40.968;14.538;2023-08-31T05:57:38;19.20;99.90
48768;DHT22;34933;40.968;14.538;2023-08-31T06:00:24;19.30;99.90
48768;DHT22;34933;40.968;14.538;2023-08-31T06:03:08;19.50;99.90
48768;DHT22;34933;40.968;14.538;2023-08-31T06:05:54;19.60;99.90
48768;DHT22;34933;40.968;14.538;2023-08-31T06:08:39;19.80;99.90
48768;DHT22;34933;40.968;14.538;2023-08-31T06:11:24;19.90;99.90
48768;DHT22;34933;40.968;14.538;2023-08-31T06:14:08;20.00;99.90
48768;DHT22;34933;40.968;14.538;2023-08-31T06:16:53;20.10;99.90
48768;DHT22;34933;40.968;14.538;2023-08-31T06:19:38;20.20;99.90
48768;DHT22;34933;40.968;14.538;2023-08-31T06:22:23;20.40;99.90
48768;DHT22;34933;40.968;14.538;2023-08-31T06:25:08;20.50;99.90
48768;DHT22;34933;40.968;14.538;2023-08-31T06:27:55;20.70;99.90
48768;DHT22;34933;40.968;14.538;2023-08-31T06:30:41;20.80;99.90
48768;DHT22;34933;40.968;14.538;2023-08-31T06:33:30;20.90;99.90
48768;DHT22;34933;40.968;14.538;2023-08-31T06:36:15;21.10;99.90
48768;DHT22;34933;40.968;14.538;2023-08-31T06:39:00;21.20;99.90
48768;DHT22;34933;40.968;14.538;2023-08-31T06:41:44;21.30;99.90
48768;DHT22;34933;40.968;14.538;2023-08-31T06:44:30;21.40;99.90
48768;DHT22;34933;40.968;14.538;2023-08-31T06:47:15;21.50;99.90
48768;DHT22;34933;40.968;14.538;2023-08-31T06:50:02;21.60;99.90
48768;DHT22;34933;40.968;14.538;2023-08-31T06:52:47;21.60;99.90
48768;DHT22;34933;40.968;14.538;2023-08-31T06:55:32;21.70;99.90
48768;DHT22;34933;40.968;14.538;2023-08-31T06:58:17;21.70;99.90
48768;DHT22;34933;40.968;14.538;2023-08-31T07:01:05;21.80;99.90
48768;DHT22;34933;40.968;14.538;2023-08-31T07:03:50;21.80;99.90
48768;DHT22;34933;40.968;14.538;2023-08-31T07:06:35;21.80;99.90
48768;DHT22;34933;40.968;14.538;2023-08-31T07:09:20;21.90;99.90
48768;DHT22;34933;40.968;14.538;2023-08-31T07:12:05;22.00;99.90
48768;DHT22;34933;40.968;14.538;2023-08-31T07:14:49;22.10;99.90
48768;DHT22;34933;40.968;14.538;2023-08-31T07:17:34;22.20;99.90
48768;DHT22;34933;40.968;14.538;2023-08-31T07:20:19;22.30;99.90
48768;DHT22;34933;40.968;14.538;2023-08-31T07:23:04;22.40;99.90
48768;DHT22;34933;40.968;14.538;2023-08-31T07:25:48;22.50;99.90
48768;DHT22;34933;40.968;14.538;2023-08-31T07:28:33;22.60;99.90
48768;DHT22;34933;40.968;14.538;2023-08-31T07:31:18;22.80;99.90
48768;DHT22;34933;40.968;14.538;2023-08-31T07:34:02;22.90;99.90
48768;DHT22;34933;40.968;14.538;2023-08-31T07:36:47;23.20;99.90
48768;DHT22;34933;40.968;14.538;2023-08-31T07:39:32;23.40;99.90
48768;DHT22;34933;40.968;14.538;2023-08-31T07:42:17;23.50;99.90
48768;DHT22;34933;40.968;14.538;2023-08-31T07:45:02;23.50;99.90
48768;DHT22;34933;40.968;14.538;2023-08-31T07:47:46;23.50;99.90
48768;DHT22;34933;40.968;14.538;2023-08-31T07:50:31;23.60;99.90
48768;DHT22;34933;40.968;14.538;2023-08-31T07:53:16;23.80;99.90
48768;DHT22;34933;40.968;14.538;2023-08-31T07:56:01;24.00;99.90
48768;DHT22;34933;40.968;14.538;2023-08-31T07:58:46;24.30;99.90
48768;DHT22;34933;40.968;14.538;2023-08-31T08:01:30;24.50;99.90
48768;DHT22;34933;40.968;14.538;2023-08-31T08:04:15;24.70;99.90
48768;DHT22;34933;40.968;14.538;2023-08-31T08:07:00;24.80;99.90
48768;DHT22;34933;40.968;14.538;2023-08-31T08:09:44;24.80;99.90
48768;DHT22;34933;40.968;14.538;2023-08-31T08:12:40;24.80;99.90
48768;DHT22;34933;40.968;14.538;2023-08-31T08:15:25;24.80;99.90
48768;DHT22;34933;40.968;14.538;2023-08-31T08:18:09;24.80;99.90
48768;DHT22;34933;40.968;14.538;2023-08-31T08:20:54;24.90;99.90
48768;DHT22;34933;40.968;14.538;2023-08-31T08:23:38;24.90;99.90
48768;DHT22;34933;40.968;14.538;2023-08-31T08:26:23;25.10;99.90
48768;DHT22;34933;40.968;14.538;2023-08-31T08:29:08;25.40;99.90
48768;DHT22;34933;40.968;14.538;2023-08-31T08:31:53;25.60;99.90
48768;DHT22;34933;40.968;14.538;2023-08-31T08:34:37;25.60;99.90
48768;DHT22;34933;40.968;14.538;2023-08-31T08:37:22;25.80;99.90
48768;DHT22;34933;40.968;14.538;2023-08-31T08:40:07;26.10;99.90
48768;DHT22;34933;40.968;14.538;2023-08-31T08:42:53;26.40;99.90
48768;DHT22;34933;40.968;14.538;2023-08-31T08:45:38;26.30;99.90
48768;DHT22;34933;40.968;14.538;2023-08-31T08:48:24;26.10;99.90
48768;DHT22;34933;40.968;14.538;2023-08-31T08:51:10;25.90;99.90
48768;DHT22;34933;40.968;14.538;2023-08-31T08:53:54;25.90;99.90
48768;DHT22;34933;40.968;14.538;2023-08-31T08:56:39;26.30;99.90
48768;DHT22;34933;40.968;14.538;2023-08-31T08:59:24;26.70;99.90
48768;DHT22;34933;40.968;14.538;2023-08-31T09:02:10;27.00;99.90
48768;DHT22;34933;40.968;14.538;2023-08-31T09:04:56;27.20;99.90
48768;DHT22;34933;40.968;14.538;2023-08-31T09:08:07;27.20;99.90
48768;DHT22;34933;40.968;14.538;2023-08-31T09:10:57;27.00;99.90
48768;DHT22;34933;40.968;14.538;2023-08-31T09:13:42;26.70;99.90
48768;DHT22;34933;40.968;14.538;2023-08-31T09:16:29;26.30;99.90
48768;DHT22;34933;40.968;14.538;2023-08-31T09:19:24;26.10;99.90
48768;DHT22;34933;40.968;14.538;2023-08-31T09:22:10;25.90;99.90
48768;DHT22;34933;40.968;14.538;2023-08-31T09:24:55;25.60;99.90
48768;DHT22;34933;40.968;14.538;2023-08-31T09:27:40;25.60;99.90
48768;DHT22;34933;40.968;14.538;2023-08-31T09:30:35;25.80;99.90
48768;DHT22;34933;40.968;14.538;2023-08-31T09:33:20;26.10;99.90
48768;DHT22;34933;40.968;14.538;2023-08-31T09:36:07;26.40;99.90
48768;DHT22;34933;40.968;14.538;2023-08-31T09:38:51;26.10;99.90
48768;DHT22;34933;40.968;14.538;2023-08-31T09:41:52;26.20;99.90
48768;DHT22;34933;40.968;14.538;2023-08-31T09:44:43;26.60;99.90
48768;DHT22;34933;40.968;14.538;2023-08-31T09:47:28;26.80;99.90
48768;DHT22;34933;40.968;14.538;2023-08-31T09:50:13;26.70;99.90
48768;DHT22;34933;40.968;14.538;2023-08-31T09:53:04;26.70;99.90
48768;DHT22;34933;40.968;14.538;2023-08-31T09:55:51;26.40;99.90
48768;DHT22;34933;40.968;14.538;2023-08-31T09:58:36;26.40;99.90
48768;DHT22;34933;40.968;14.538;2023-08-31T10:01:20;26.60;99.90
48768;DHT22;34933;40.968;14.538;2023-08-31T10:04:06;26.70;99.90
48768;DHT22;34933;40.968;14.538;2023-08-31T10:06:52;27.00;99.90
48768;DHT22;34933;40.968;14.538;2023-08-31T10:09:37;27.00;99.90
48768;DHT22;34933;40.968;14.538;2023-08-31T10:12:22;26.90;99.90
48768;DHT22;34933;40.968;14.538;2023-08-31T10:15:07;26.80;99.90
48768;DHT22;34933;40.968;14.538;2023-08-31T10:17:52;26.80;99.90
48768;DHT22;34933;40.968;14.538;2023-08-31T10:20:36;26.70;99.90
48768;DHT22;34933;40.968;14.538;2023-08-31T10:23:22;26.70;99.90
48768;DHT22;34933;40.968;14.538;2023-08-31T10:26:06;26.70;99.90
48768;DHT22;34933;40.968;14.538;2023-08-31T10:28:52;27.10;99.90
48768;DHT22;34933;40.968;14.538;2023-08-31T10:31:36;27.30;99.90
48768;DHT22;34933;40.968;14.538;2023-08-31T10:34:35;27.60;99.90
48768;DHT22;34933;40.968;14.538;2023-08-31T10:37:23;27.60;99.90
48768;DHT22;34933;40.968;14.538;2023-08-31T10:40:11;27.40;99.90
48768;DHT22;34933;40.968;14.538;2023-08-31T10:43:14;26.90;99.90
48768;DHT22;34933;40.968;14.538;2023-08-31T10:45:59;26.80;99.90
48768;DHT22;34933;40.968;14.538;2023-08-31T10:48:58;26.80;99.90
48768;DHT22;34933;40.968;14.538;2023-08-31T10:51:45;26.90;99.90
48768;DHT22;34933;40.968;14.538;2023-08-31T10:54:33;27.00;99.30
48768;DHT22;34933;40.968;14.538;2023-08-31T10:57:29;27.20;97.90
48768;DHT22;34933;40.968;14.538;2023-08-31T11:00:47;27.60;98.50
48768;DHT22;34933;40.968;14.538;2023-08-31T11:03:32;27.50;99.00
48768;DHT22;34933;40.968;14.538;2023-08-31T11:06:37;27.30;98.40
48768;DHT22;34933;40.968;14.538;2023-08-31T11:09:21;27.30;98.90
48768;DHT22;34933;40.968;14.538;2023-08-31T11:12:06;27.30;98.90
48768;DHT22;34933;40.968;14.538;2023-08-31T11:14:51;27.50;98.90
48768;DHT22;34933;40.968;14.538;2023-08-31T11:17:37;27.60;99.30
48768;DHT22;34933;40.968;14.538;2023-08-31T11:20:25;28.00;98.90
48768;DHT22;34933;40.968;14.538;2023-08-31T11:23:12;28.10;98.60
48768;DHT22;34933;40.968;14.538;2023-08-31T11:25:57;27.80;98.40
48768;DHT22;34933;40.968;14.538;2023-08-31T11:28:43;27.40;98.80
48768;DHT22;34933;40.968;14.538;2023-08-31T11:31:28;27.10;98.60
48768;DHT22;34933;40.968;14.538;2023-08-31T11:34:14;27.30;98.50
48768;DHT22;34933;40.968;14.538;2023-08-31T11:36:59;27.50;98.50
48768;DHT22;34933;40.968;14.538;2023-08-31T11:39:51;27.30;98.80
48768;DHT22;34933;40.968;14.538;2023-08-31T11:42:36;27.00;99.10
48768;DHT22;34933;40.968;14.538;2023-08-31T11:45:22;26.90;98.00
48768;DHT22;34933;40.968;14.538;2023-08-31T11:48:08;27.00;98.60
48768;DHT22;34933;40.968;14.538;2023-08-31T11:50:53;27.30;98.40
48768;DHT22;34933;40.968;14.538;2023-08-31T11:53:38;28.00;98.00
48768;DHT22;34933;40.968;14.538;2023-08-31T11:56:23;28.30;97.80
48768;DHT22;34933;40.968;14.538;2023-08-31T11:59:11;28.50;98.10
48768;DHT22;34933;40.968;14.538;2023-08-31T12:01:58;28.60;97.10
48768;DHT22;34933;40.968;14.538;2023-08-31T12:04:43;29.00;96.40
48768;DHT22;34933;40.968;14.538;2023-08-31T12:07:28;29.70;95.90
48768;DHT22;34933;40.968;14.538;2023-08-31T12:10:14;29.50;96.20
48768;DHT22;34933;40.968;14.538;2023-08-31T12:13:09;30.00;95.60
48768;DHT22;34933;40.968;14.538;2023-08-31T12:15:54;30.00;95.10
48768;DHT22;34933;40.968;14.538;2023-08-31T12:18:39;30.50;94.90
48768;DHT22;34933;40.968;14.538;2023-08-31T12:21:24;30.90;95.10
48768;DHT22;34933;40.968;14.538;2023-08-31T12:24:09;31.40;94.70
48768;DHT22;34933;40.968;14.538;2023-08-31T12:26:54;31.30;94.80
48768;DHT22;34933;40.968;14.538;2023-08-31T12:29:38;31.70;94.50
48768;DHT22;34933;40.968;14.538;2023-08-31T12:32:23;31.50;93.80
48768;DHT22;34933;40.968;14.538;2023-08-31T12:35:08;30.30;94.40
48768;DHT22;34933;40.968;14.538;2023-08-31T12:37:54;30.30;94.90
48768;DHT22;34933;40.968;14.538;2023-08-31T12:40:41;31.20;94.20
48768;DHT22;34933;40.968;14.538;2023-08-31T12:43:26;31.20;93.10
48768;DHT22;34933;40.968;14.538;2023-08-31T12:46:10;30.00;93.80
48768;DHT22;34933;40.968;14.538;2023-08-31T12:48:58;29.00;94.50
48768;DHT22;34933;40.968;14.538;2023-08-31T12:51:43;28.40;94.60
48768;DHT22;34933;40.968;14.538;2023-08-31T12:54:28;28.60;95.10
48768;DHT22;34933;40.968;14.538;2023-08-31T12:57:12;28.70;95.00
48768;DHT22;34933;40.968;14.538;2023-08-31T12:59:57;28.40;95.20
48768;DHT22;34933;40.968;14.538;2023-08-31T13:02:42;28.00;95.60
48768;DHT22;34933;40.968;14.538;2023-08-31T13:05:27;28.30;95.20
48768;DHT22;34933;40.968;14.538;2023-08-31T13:08:13;28.80;95.10
48768;DHT22;34933;40.968;14.538;2023-08-31T13:10:58;29.80;93.90
48768;DHT22;34933;40.968;14.538;2023-08-31T13:13:42;29.20;94.20
48768;DHT22;34933;40.968;14.538;2023-08-31T13:16:27;28.80;95.00
48768;DHT22;34933;40.968;14.538;2023-08-31T13:19:12;29.40;95.00
48768;DHT22;34933;40.968;14.538;2023-08-31T13:21:57;30.30;94.10
48768;DHT22;34933;40.968;14.538;2023-08-31T13:24:41;30.10;93.20
48768;DHT22;34933;40.968;14.538;2023-08-31T13:27:26;30.90;93.40
48768;DHT22;34933;40.968;14.538;2023-08-31T13:30:11;31.10;93.70
48768;DHT22;34933;40.968;14.538;2023-08-31T13:32:56;31.80;92.90
48768;DHT22;34933;40.968;14.538;2023-08-31T13:35:41;32.00;93.30
48768;DHT22;34933;40.968;14.538;2023-08-31T13:38:26;32.60;92.10
48768;DHT22;34933;40.968;14.538;2023-08-31T13:41:11;32.20;91.90
48768;DHT22;34933;40.968;14.538;2023-08-31T13:43:56;32.00;91.80
48768;DHT22;34933;40.968;14.538;2023-08-31T13:46:40;32.50;91.80
48768;DHT22;34933;40.968;14.538;2023-08-31T13:49:25;32.70;92.00
48768;DHT22;34933;40.968;14.538;2023-08-31T13:52:09;33.10;91.40
48768;DHT22;34933;40.968;14.538;2023-08-31T13:54:55;32.90;91.40
48768;DHT22;34933;40.968;14.538;2023-08-31T13:57:41;33.00;91.60
48768;DHT22;34933;40.968;14.538;2023-08-31T14:00:26;32.90;91.00
48768;DHT22;34933;40.968;14.538;2023-08-31T14:03:11;32.40;91.10
48768;DHT22;34933;40.968;14.538;2023-08-31T14:05:55;32.30;91.30
48768;DHT22;34933;40.968;14.538;2023-08-31T14:08:40;31.80;91.50
48768;DHT22;34933;40.968;14.538;2023-08-31T14:11:25;32.50;91.30
48768;DHT22;34933;40.968;14.538;2023-08-31T14:14:13;32.00;91.60
48768;DHT22;34933;40.968;14.538;2023-08-31T14:16:59;32.50;91.70
48768;DHT22;34933;40.968;14.538;2023-08-31T14:19:43;33.00;91.10
48768;DHT22;34933;40.968;14.538;2023-08-31T14:22:28;33.20;90.80
48768;DHT22;34933;40.968;14.538;2023-08-31T14:25:13;33.10;90.40
48768;DHT22;34933;40.968;14.538;2023-08-31T14:27:58;33.20;90.10
48768;DHT22;34933;40.968;14.538;2023-08-31T14:30:43;33.00;90.30
48768;DHT22;34933;40.968;14.538;2023-08-31T14:33:27;33.00;90.40
48768;DHT22;34933;40.968;14.538;2023-08-31T14:36:14;33.70;90.20
48768;DHT22;34933;40.968;14.538;2023-08-31T14:39:00;34.10;90.00
48768;DHT22;34933;40.968;14.538;2023-08-31T14:41:44;34.10;88.70
48768;DHT22;34933;40.968;14.538;2023-08-31T14:44:29;33.60;90.10
48768;DHT22;34933;40.968;14.538;2023-08-31T14:47:13;33.70;89.50
48768;DHT22;34933;40.968;14.538;2023-08-31T14:49:58;34.00;89.40
48768;DHT22;34933;40.968;14.538;2023-08-31T14:52:43;33.70;90.00
48768;DHT22;34933;40.968;14.538;2023-08-31T14:55:27;33.30;89.10
48768;DHT22;34933;40.968;14.538;2023-08-31T14:58:12;33.10;90.00
48768;DHT22;34933;40.968;14.538;2023-08-31T15:00:57;33.80;89.90
48768;DHT22;34933;40.968;14.538;2023-08-31T15:03:41;34.00;89.60
48768;DHT22;34933;40.968;14.538;2023-08-31T15:06:26;33.60;90.30
48768;DHT22;34933;40.968;14.538;2023-08-31T15:09:11;32.70;90.40
48768;DHT22;34933;40.968;14.538;2023-08-31T15:11:55;32.40;90.40
48768;DHT22;34933;40.968;14.538;2023-08-31T15:14:40;32.50;90.60
48768;DHT22;34933;40.968;14.538;2023-08-31T15:17:25;32.60;90.20
48768;DHT22;34933;40.968;14.538;2023-08-31T15:20:10;33.00;90.30
48768;DHT22;34933;40.968;14.538;2023-08-31T15:22:54;33.10;90.20
48768;DHT22;34933;40.968;14.538;2023-08-31T15:25:39;32.70;90.10
48768;DHT22;34933;40.968;14.538;2023-08-31T15:28:24;32.70;90.20
48768;DHT22;34933;40.968;14.538;2023-08-31T15:31:12;33.00;90.40
48768;DHT22;34933;40.968;14.538;2023-08-31T15:33:57;32.70;90.00
48768;DHT22;34933;40.968;14.538;2023-08-31T15:36:42;32.30;90.60
48768;DHT22;34933;40.968;14.538;2023-08-31T15:39:26;32.00;91.00
48768;DHT22;34933;40.968;14.538;2023-08-31T15:42:11;32.00;91.10
48768;DHT22;34933;40.968;14.538;2023-08-31T15:44:56;32.00;91.10
48768;DHT22;34933;40.968;14.538;2023-08-31T15:47:40;32.10;91.20
48768;DHT22;34933;40.968;14.538;2023-08-31T15:50:25;31.80;91.30
48768;DHT22;34933;40.968;14.538;2023-08-31T15:53:09;31.40;91.30
48768;DHT22;34933;40.968;14.538;2023-08-31T15:55:55;31.30;91.80
48768;DHT22;34933;40.968;14.538;2023-08-31T15:58:39;31.70;91.50
48768;DHT22;34933;40.968;14.538;2023-08-31T16:01:25;31.60;91.10
48768;DHT22;34933;40.968;14.538;2023-08-31T16:04:10;31.30;91.60
48768;DHT22;34933;40.968;14.538;2023-08-31T16:06:55;30.50;92.10
48768;DHT22;34933;40.968;14.538;2023-08-31T16:09:40;29.90;92.80
48768;DHT22;34933;40.968;14.538;2023-08-31T16:12:24;30.40;92.40
48768;DHT22;34933;40.968;14.538;2023-08-31T16:15:09;31.10;92.00
48768;DHT22;34933;40.968;14.538;2023-08-31T16:17:54;31.30;92.00
48768;DHT22;34933;40.968;14.538;2023-08-31T16:20:39;30.70;92.10
48768;DHT22;34933;40.968;14.538;2023-08-31T16:23:23;30.40;92.60
48768;DHT22;34933;40.968;14.538;2023-08-31T16:26:08;30.60;92.40
48768;DHT22;34933;40.968;14.538;2023-08-31T16:28:53;30.50;92.60
48768;DHT22;34933;40.968;14.538;2023-08-31T16:31:37;30.20;92.80
48768;DHT22;34933;40.968;14.538;2023-08-31T16:34:22;29.50;93.30
48768;DHT22;34933;40.968;14.538;2023-08-31T16:37:07;28.70;94.30
48768;DHT22;34933;40.968;14.538;2023-08-31T16:39:52;28.10;94.70
48768;DHT22;34933;40.968;14.538;2023-08-31T16:42:38;27.50;95.50
48768;DHT22;34933;40.968;14.538;2023-08-31T16:45:23;27.10;96.10
48768;DHT22;34933;40.968;14.538;2023-08-31T16:48:08;26.40;96.60
48768;DHT22;34933;40.968;14.538;2023-08-31T16:50:53;26.20;96.80
48768;DHT22;34933;40.968;14.538;2023-08-31T16:53:38;26.10;97.30
48768;DHT22;34933;40.968;14.538;2023-08-31T16:56:22;26.30;97.00
48768;DHT22;34933;40.968;14.538;2023-08-31T16:59:07;26.30;97.30
48768;DHT22;34933;40.968;14.538;2023-08-31T17:01:52;26.30;97.40
48768;DHT22;34933;40.968;14.538;2023-08-31T17:04:36;26.30;97.30
48768;DHT22;34933;40.968;14.538;2023-08-31T17:07:21;25.90;97.60
48768;DHT22;34933;40.968;14.538;2023-08-31T17:10:06;25.50;98.10
48768;DHT22;34933;40.968;14.538;2023-08-31T17:12:50;25.20;98.60
48768;DHT22;34933;40.968;14.538;2023-08-31T17:15:36;24.90;99.10